createdAt,value
2022-10-12T00:01:19.683Z,95660.47
2022-10-12T00:03:46.324Z,95663.44
2022-10-12T00:06:16.309Z,95663.28
2022-10-12T00:08:44.035Z,95655.25
2022-10-12T00:11:19.423Z,95665.31
2022-10-12T00:13:46.655Z,95665.69
2022-10-12T00:16:14.788Z,95658.22
2022-10-12T00:18:41.389Z,95666.50
2022-10-12T00:21:15.918Z,95660.25
2022-10-12T00:23:43.800Z,95667.22
2022-10-12T00:26:16.773Z,95673.75
2022-10-12T00:28:43.979Z,95659.56
2022-10-12T00:31:19.541Z,95664.91
2022-10-12T00:33:47.341Z,95668.94
2022-10-12T00:36:21.060Z,95665.69
2022-10-12T00:38:49.343Z,95671.28
2022-10-12T00:41:17.565Z,95664.75
2022-10-12T00:43:46.230Z,95668.94
2022-10-12T00:46:22.048Z,95665.59
2022-10-12T00:48:54.963Z,95665.75
2022-10-12T00:51:22.648Z,95666.97
2022-10-12T00:53:55.381Z,95667.06
2022-10-12T00:56:25.432Z,95659.72
2022-10-12T00:58:54.787Z,95663.25
2022-10-12T01:01:22.804Z,95663.28
2022-10-12T01:03:50.280Z,95658.25
2022-10-12T01:06:17.857Z,95660.28
2022-10-12T01:08:45.137Z,95659.75
2022-10-12T01:11:11.741Z,95661.47
2022-10-12T01:13:38.515Z,95667.03
2022-10-12T01:16:13.252Z,95661.47
2022-10-12T01:18:49.531Z,95655.91
2022-10-12T01:21:23.436Z,95665.84
2022-10-12T01:23:58.988Z,95664.59
2022-10-12T01:26:43.915Z,95665.13
2022-10-12T01:29:32.142Z,95658.69
2022-10-12T01:31:58.670Z,95660.19
2022-10-12T01:34:58.901Z,95656.63
2022-10-12T01:37:58.757Z,95655.28
2022-10-12T01:40:44.527Z,95657.66
2022-10-12T01:43:11.206Z,95655.91
2022-10-12T01:45:37.883Z,95661.84
2022-10-12T01:48:05.039Z,95659.16
2022-10-12T01:50:47.893Z,95658.44
2022-10-12T01:53:32.822Z,95659.28
2022-10-12T01:56:11.609Z,95664.34
2022-10-12T01:59:13.947Z,95668.72
2022-10-12T02:01:50.075Z,95662.16
2022-10-12T02:04:34.415Z,95667.63
2022-10-12T02:07:15.208Z,95659.94
2022-10-12T02:09:43.217Z,95658.50
2022-10-12T02:12:16.484Z,95657.50
2022-10-12T02:14:50.627Z,95658.50
2022-10-12T02:17:20.421Z,95655.63
2022-10-12T02:19:56.915Z,95665.41
2022-10-12T02:22:34.212Z,95664.91
2022-10-12T02:25:04.406Z,95666.09
2022-10-12T02:27:34.953Z,95661.59
2022-10-12T02:30:02.676Z,95656.84
2022-10-12T02:32:41.151Z,95658.84
2022-10-12T02:35:34.135Z,95653.25
2022-10-12T02:38:04.041Z,95645.09
2022-10-12T02:40:54.376Z,95643.63
2022-10-12T02:43:25.265Z,95634.91
2022-10-12T02:45:55.631Z,95634.38
2022-10-12T02:48:24.747Z,95632.22
2022-10-12T02:50:55.637Z,95633.94
2022-10-12T02:53:24.238Z,95630.16
2022-10-12T02:55:53.508Z,95630.03
2022-10-12T02:58:20.299Z,95631.22
2022-10-12T03:00:47.032Z,95627.13
2022-10-12T03:03:13.645Z,95623.72
2022-10-12T03:05:40.224Z,95624.69
2022-10-12T03:08:06.797Z,95624.97
2022-10-12T03:10:33.352Z,95626.47
2022-10-12T03:12:59.951Z,95630.81
2022-10-12T03:15:26.541Z,95633.56
2022-10-12T03:17:53.133Z,95628.38
2022-10-12T03:20:20.079Z,95626.88
2022-10-12T03:22:46.793Z,95630.03
2022-10-12T03:25:13.449Z,95621.59
2022-10-12T03:27:40.488Z,95633.03
2022-10-12T03:30:11.485Z,95638.19
2022-10-12T03:32:39.832Z,95634.25
2022-10-12T03:35:07.109Z,95633.28
2022-10-12T03:37:33.731Z,95636.69
2022-10-12T03:40:00.318Z,95636.66
2022-10-12T03:42:26.882Z,95638.72
2022-10-12T03:44:53.447Z,95631.91
2022-10-12T03:47:20.009Z,95640.06
2022-10-12T03:49:46.551Z,95635.56
2022-10-12T03:52:13.086Z,95641.63
2022-10-12T03:54:39.638Z,95636.59
2022-10-12T03:57:06.188Z,95635.22
2022-10-12T03:59:32.744Z,95637.66
2022-10-12T04:01:59.272Z,95640.50
2022-10-12T04:04:25.878Z,95639.81
2022-10-12T04:06:52.402Z,95639.41
2022-10-12T04:09:18.970Z,95643.63
2022-10-12T04:11:45.502Z,95636.31
2022-10-12T04:14:12.046Z,95636.13
2022-10-12T04:16:38.794Z,95634.91
2022-10-12T04:19:05.447Z,95640.31
2022-10-12T04:21:32.298Z,95635.94
2022-10-12T04:23:59.020Z,95638.53
2022-10-12T04:26:25.548Z,95634.19
2022-10-12T04:28:52.197Z,95640.53
2022-10-12T04:31:18.929Z,95639.50
2022-10-12T04:33:45.525Z,95638.31
2022-10-12T04:36:12.127Z,95645.25
2022-10-12T04:38:38.777Z,95642.34
2022-10-12T04:41:05.515Z,95643.84
2022-10-12T04:43:32.160Z,95644.00
2022-10-12T04:46:00.152Z,95641.13
2022-10-12T04:48:27.445Z,95640.44
2022-10-12T04:50:54.055Z,95639.34
2022-10-12T04:53:20.798Z,95646.44
2022-10-12T04:55:47.450Z,95639.19
2022-10-12T04:58:14.170Z,95640.44
2022-10-12T05:00:41.020Z,95644.28
2022-10-12T05:03:07.602Z,95641.13
2022-10-12T05:05:35.999Z,95644.38
2022-10-12T05:08:03.962Z,95642.50
2022-10-12T05:10:30.610Z,95641.97
2022-10-12T05:12:57.372Z,95643.63
2022-10-12T05:15:24.123Z,95647.72
2022-10-12T05:17:50.698Z,95647.72
2022-10-12T05:20:17.307Z,95639.03
2022-10-12T05:22:43.909Z,95644.88
2022-10-12T05:25:10.560Z,95652.47
2022-10-12T05:27:37.429Z,95656.00
2022-10-12T05:30:05.869Z,95657.50
2022-10-12T05:32:32.417Z,95651.63
2022-10-12T05:34:59.051Z,95645.25
2022-10-12T05:37:25.600Z,95655.28
2022-10-12T05:39:52.190Z,95654.34
2022-10-12T05:42:18.791Z,95656.78
2022-10-12T05:44:48.380Z,95657.22
2022-10-12T05:47:15.217Z,95653.53
2022-10-12T05:49:44.478Z,95656.94
2022-10-12T05:52:11.119Z,95657.75
2022-10-12T05:54:37.675Z,95660.63
2022-10-12T05:57:04.223Z,95671.50
2022-10-12T05:59:30.893Z,95668.09
2022-10-12T06:01:57.575Z,95668.91
2022-10-12T06:04:24.271Z,95676.25
2022-10-12T06:06:50.812Z,95672.31
2022-10-12T06:09:17.490Z,95669.97
2022-10-12T06:11:44.017Z,95674.06
2022-10-12T06:14:10.555Z,95670.41
2022-10-12T06:16:37.278Z,95669.53
2022-10-12T06:19:03.925Z,95672.22
2022-10-12T06:21:34.512Z,95672.63
2022-10-12T06:24:01.465Z,95681.91
2022-10-12T06:26:28.154Z,95679.56
2022-10-12T06:28:54.809Z,95675.34
2022-10-12T06:31:21.718Z,95683.75
2022-10-12T06:33:50.202Z,95679.78
2022-10-12T06:36:16.907Z,95677.66
2022-10-12T06:38:43.507Z,95683.88
2022-10-12T06:41:10.147Z,95682.78
2022-10-12T06:43:36.892Z,95682.31
2022-10-12T06:46:04.093Z,95687.94
2022-10-12T06:48:30.698Z,95683.03
2022-10-12T06:50:57.372Z,95689.56
2022-10-12T06:53:25.458Z,95690.53
2022-10-12T06:55:52.014Z,95690.47
2022-10-12T06:58:18.833Z,95689.22
2022-10-12T07:00:45.475Z,95689.16
2022-10-12T07:03:13.541Z,95691.81
2022-10-12T07:05:40.175Z,95681.19
2022-10-12T07:08:06.721Z,95686.72
2022-10-12T07:10:33.506Z,95689.16
2022-10-12T07:13:00.115Z,95695.94
2022-10-12T07:15:26.870Z,95694.06
2022-10-12T07:17:53.413Z,95695.19
2022-10-12T07:20:19.966Z,95696.78
2022-10-12T07:22:46.527Z,95703.31
2022-10-12T07:25:13.130Z,95702.66
2022-10-12T07:27:40.176Z,95701.09
2022-10-12T07:30:07.865Z,95701.16
2022-10-12T07:32:34.408Z,95705.00
2022-10-12T07:35:00.956Z,95698.22
2022-10-12T07:37:27.527Z,95703.41
2022-10-12T07:39:57.307Z,95705.72
2022-10-12T07:42:25.152Z,95707.09
2022-10-12T07:44:51.904Z,95705.97
2022-10-12T07:47:19.379Z,95703.28
2022-10-12T07:49:46.217Z,95710.69
2022-10-12T07:52:13.076Z,95710.03
2022-10-12T07:54:39.766Z,95709.72
2022-10-12T07:57:06.418Z,95707.03
2022-10-12T07:59:32.958Z,95711.53
2022-10-12T08:01:59.701Z,95711.50
2022-10-12T08:04:26.464Z,95717.59
2022-10-12T08:06:53.112Z,95713.47
2022-10-12T08:09:19.773Z,95715.75
2022-10-12T08:11:46.502Z,95715.56
2022-10-12T08:14:14.933Z,95714.13
2022-10-12T08:16:43.135Z,95715.13
2022-10-12T08:19:10.417Z,95713.50
2022-10-12T08:21:37.016Z,95711.19
2022-10-12T08:24:03.829Z,95711.84
2022-10-12T08:26:30.522Z,95722.34
2022-10-12T08:28:57.307Z,95717.69
2022-10-12T08:31:24.276Z,95721.94
2022-10-12T08:33:50.855Z,95719.81
2022-10-12T08:36:17.474Z,95727.75
2022-10-12T08:38:44.121Z,95728.56
2022-10-12T08:41:25.666Z,95724.81
2022-10-12T08:44:06.854Z,95723.22
2022-10-12T08:46:33.874Z,95723.66
2022-10-12T08:49:26.473Z,95721.22
2022-10-12T08:51:55.952Z,95716.53
2022-10-12T08:54:26.029Z,95717.94
2022-10-12T08:56:54.257Z,95718.47
2022-10-12T08:59:21.025Z,95724.94
2022-10-12T09:02:26.460Z,95724.78
2022-10-12T09:05:16.846Z,95729.81
2022-10-12T09:07:55.357Z,95723.97
2022-10-12T09:10:38.304Z,95730.31
2022-10-12T09:13:11.159Z,95722.44
2022-10-12T09:15:52.845Z,95730.53
2022-10-12T09:18:30.179Z,95727.16
2022-10-12T09:20:57.945Z,95724.88
2022-10-12T09:23:34.701Z,95721.63
2022-10-12T09:26:12.060Z,95727.94
2022-10-12T09:28:50.871Z,95728.22
2022-10-12T09:31:35.524Z,95732.19
2022-10-12T09:34:06.666Z,95728.84
2022-10-12T09:36:39.337Z,95730.94
2022-10-12T09:39:26.867Z,95730.50
2022-10-12T09:41:58.408Z,95728.25
2022-10-12T09:44:49.333Z,95730.03
2022-10-12T09:47:23.577Z,95729.59
2022-10-12T09:49:51.903Z,95730.72
2022-10-12T09:52:24.698Z,95730.84
2022-10-12T09:54:54.581Z,95725.34
2022-10-12T09:57:29.990Z,95721.56
2022-10-12T09:59:57.012Z,95729.41
2022-10-12T10:02:27.326Z,95724.63
2022-10-12T10:04:55.121Z,95736.88
2022-10-12T10:07:29.792Z,95725.53
2022-10-12T10:10:37.460Z,95723.97
2022-10-12T10:13:06.238Z,95722.66
2022-10-12T10:15:35.750Z,95725.25
2022-10-12T10:18:22.341Z,95718.44
2022-10-12T10:20:54.565Z,95721.69
2022-10-12T10:23:25.954Z,95730.63
2022-10-12T10:26:04.709Z,95728.34
2022-10-12T10:28:37.109Z,95726.91
2022-10-12T10:31:07.248Z,95720.06
2022-10-12T10:33:36.281Z,95731.41
2022-10-12T10:36:04.704Z,95726.41
2022-10-12T10:38:47.967Z,95729.50
2022-10-12T10:41:18.200Z,95730.59
2022-10-12T10:43:48.961Z,95724.28
2022-10-12T10:46:23.834Z,95720.53
2022-10-12T10:48:58.921Z,95722.16
2022-10-12T10:51:43.151Z,95719.22
2022-10-12T10:54:16.348Z,95717.75
2022-10-12T10:56:44.497Z,95713.88
2022-10-12T10:59:40.455Z,95706.56
2022-10-12T11:02:34.947Z,95710.31
2022-10-12T11:05:08.041Z,95702.16
2022-10-12T11:07:41.434Z,95700.84
2022-10-12T11:10:31.271Z,95704.63
2022-10-12T11:13:12.529Z,95695.00
2022-10-12T11:15:47.241Z,95699.41
2022-10-12T11:18:26.034Z,95695.00
2022-10-12T11:20:58.227Z,95690.97
2022-10-12T11:24:02.195Z,95689.78
2022-10-12T11:26:28.692Z,95675.69
2022-10-12T11:28:58.557Z,95684.31
2022-10-12T11:31:32.095Z,95674.44
2022-10-12T11:34:03.216Z,95680.66
2022-10-12T11:36:32.335Z,95675.81
2022-10-12T11:39:07.081Z,95677.13
2022-10-12T11:42:16.909Z,95673.06
2022-10-12T11:44:45.822Z,95677.41
2022-10-12T11:47:41.771Z,95670.59
2022-10-12T11:50:32.752Z,95678.38
2022-10-12T11:53:02.585Z,95675.84
2022-10-12T11:55:31.952Z,95671.94
2022-10-12T11:58:08.722Z,95674.63
2022-10-12T12:01:12.913Z,95673.00
2022-10-12T12:03:45.660Z,95664.75
2022-10-12T12:06:52.345Z,95668.00
2022-10-12T12:09:40.618Z,95665.69
2022-10-12T12:12:28.882Z,95665.72
2022-10-12T12:14:55.396Z,95667.47
2022-10-12T12:17:22.006Z,95665.03
2022-10-12T12:19:49.760Z,95661.69
2022-10-12T12:22:18.248Z,95661.25
2022-10-12T12:25:11.423Z,95661.28
2022-10-12T12:27:46.392Z,95656.69
2022-10-12T12:30:18.983Z,95664.47
2022-10-12T12:33:25.727Z,95649.50
2022-10-12T12:35:54.559Z,95648.31
2022-10-12T12:38:45.709Z,95654.06
2022-10-12T12:41:13.879Z,95647.91
2022-10-12T12:43:56.205Z,95655.50
2022-10-12T12:46:25.180Z,95651.19
2022-10-12T12:48:51.678Z,95651.06
2022-10-12T12:51:35.224Z,95654.13
2022-10-12T12:54:03.779Z,95657.53
2022-10-12T12:56:36.315Z,95645.56
2022-10-12T12:59:18.045Z,95651.06
2022-10-12T13:02:23.899Z,95648.91
2022-10-12T13:05:23.951Z,95652.16
2022-10-12T13:08:05.782Z,95647.16
2022-10-12T13:10:39.236Z,95648.91
2022-10-12T13:13:40.160Z,95645.44
2022-10-12T13:19:37.265Z,95633.91
2022-10-12T13:22:23.534Z,95640.44
2022-10-12T13:24:54.576Z,95639.72
2022-10-12T13:27:27.184Z,95635.66
2022-10-12T13:30:06.551Z,95639.50
2022-10-12T13:32:46.134Z,95642.59
2022-10-12T13:35:22.011Z,95634.88
2022-10-12T13:38:00.594Z,95634.78
2022-10-12T13:40:38.913Z,95633.59
2022-10-12T13:43:27.809Z,95637.78
2022-10-12T13:45:54.648Z,95627.06
2022-10-12T13:48:46.556Z,95629.34
2022-10-12T13:51:26.323Z,95618.97
2022-10-12T13:53:53.473Z,95622.81
2022-10-12T13:56:23.918Z,95619.22
2022-10-12T13:59:01.691Z,95620.22
2022-10-12T14:01:29.800Z,95615.19
2022-10-12T14:04:04.841Z,95611.94
2022-10-12T14:06:38.046Z,95617.31
2022-10-12T14:09:19.685Z,95614.88
2022-10-12T14:14:43.246Z,95616.94
2022-10-12T14:17:15.558Z,95607.28
2022-10-12T14:19:46.681Z,95608.78
2022-10-12T14:22:29.202Z,95609.16
2022-10-12T14:25:09.939Z,95611.03
2022-10-12T14:27:38.914Z,95611.50
2022-10-12T14:30:27.696Z,95604.91
2022-10-12T14:32:59.749Z,95604.75
2022-10-12T14:35:29.463Z,95602.38
2022-10-12T14:37:57.183Z,95609.28
2022-10-12T14:40:32.609Z,95610.09
2022-10-12T14:43:05.111Z,95609.00
2022-10-12T14:45:32.889Z,95607.69
2022-10-12T14:48:01.384Z,95615.06
2022-10-12T14:50:31.308Z,95610.72
2022-10-12T14:53:02.765Z,95614.50
2022-10-12T14:55:33.940Z,95607.88
2022-10-12T14:58:00.602Z,95605.97
2022-10-12T15:00:30.223Z,95609.56
2022-10-12T15:02:57.607Z,95612.91
2022-10-12T15:05:25.828Z,95611.78
2022-10-12T15:07:52.906Z,95608.69
2022-10-12T15:10:22.706Z,95609.53
2022-10-12T15:12:50.329Z,95608.84
2022-10-12T15:15:32.237Z,95608.78
2022-10-12T15:17:59.373Z,95607.50
2022-10-12T15:20:28.154Z,95603.59
2022-10-12T15:22:54.747Z,95609.63
2022-10-12T15:25:44.259Z,95604.94
2022-10-12T15:28:10.947Z,95611.47
2022-10-12T15:30:52.085Z,95610.34
2022-10-12T15:33:24.788Z,95609.22
2022-10-12T15:35:51.583Z,95615.22
2022-10-12T15:38:18.214Z,95599.31
2022-10-12T15:40:46.179Z,95606.47
2022-10-12T15:43:13.226Z,95603.53
2022-10-12T15:45:40.827Z,95603.53
2022-10-12T15:48:09.802Z,95604.50
2022-10-12T15:50:49.730Z,95612.78
2022-10-12T15:53:20.888Z,95606.09
2022-10-12T15:55:47.928Z,95599.47
2022-10-12T15:58:14.684Z,95604.31
2022-10-12T16:00:41.793Z,95606.22
2022-10-12T16:03:15.053Z,95609.78
2022-10-12T16:05:41.827Z,95602.81
2022-10-12T16:08:08.429Z,95604.44
2022-10-12T16:10:38.409Z,95605.03
2022-10-12T16:13:11.260Z,95607.63
2022-10-12T16:15:38.071Z,95607.28
2022-10-12T16:18:05.312Z,95603.03
2022-10-12T16:20:33.829Z,95600.44
2022-10-12T16:23:01.121Z,95602.94
2022-10-12T16:25:28.264Z,95600.31
2022-10-12T16:27:56.813Z,95600.63
2022-10-12T16:30:25.421Z,95599.28
2022-10-12T16:32:52.577Z,95607.16
2022-10-12T16:35:19.467Z,95607.66
2022-10-12T16:37:46.344Z,95615.72
2022-10-12T16:40:13.477Z,95615.22
2022-10-12T16:42:40.316Z,95616.13
2022-10-12T16:45:07.489Z,95620.44
2022-10-12T16:47:37.719Z,95623.72
2022-10-12T16:50:07.428Z,95621.22
2022-10-12T16:52:34.066Z,95625.75
2022-10-12T16:55:00.687Z,95625.91
2022-10-12T16:57:27.562Z,95621.66
2022-10-12T16:59:54.183Z,95620.84
2022-10-12T17:02:20.784Z,95620.09
2022-10-12T17:04:47.441Z,95621.06
2022-10-12T17:07:14.199Z,95616.91
2022-10-12T17:09:40.781Z,95614.13
2022-10-12T17:12:07.942Z,95624.69
2022-10-12T17:14:34.537Z,95618.97
2022-10-12T17:17:01.455Z,95623.66
2022-10-12T17:19:31.859Z,95623.66
2022-10-12T17:22:00.761Z,95631.06
2022-10-12T17:24:29.289Z,95635.81
2022-10-12T17:26:56.962Z,95628.94
2022-10-12T17:29:25.756Z,95639.72
2022-10-12T17:31:53.921Z,95644.22
2022-10-12T17:34:29.388Z,95646.59
2022-10-12T17:36:58.471Z,95650.44
2022-10-12T17:39:27.785Z,95649.53
2022-10-12T17:41:54.924Z,95649.13
2022-10-12T17:44:21.674Z,95641.47
2022-10-12T17:46:52.112Z,95648.63
2022-10-12T17:49:24.494Z,95645.91
2022-10-12T17:51:52.201Z,95653.75
2022-10-12T17:54:20.267Z,95651.72
2022-10-12T17:56:46.978Z,95648.16
2022-10-12T17:59:16.345Z,95652.97
2022-10-12T18:01:43.485Z,95646.84
2022-10-12T18:04:11.383Z,95652.47
2022-10-12T18:06:38.932Z,95650.31
2022-10-12T18:09:07.254Z,95653.72
2022-10-12T18:11:34.162Z,95653.31
2022-10-12T18:14:01.111Z,95649.41
2022-10-12T18:16:30.733Z,95647.38
2022-10-12T18:19:01.811Z,95652.06
2022-10-12T18:21:31.282Z,95653.41
2022-10-12T18:24:03.418Z,95653.78
2022-10-12T18:26:30.576Z,95652.59
2022-10-12T18:29:00.019Z,95655.31
2022-10-12T18:31:27.398Z,95658.16
2022-10-12T18:33:55.141Z,95649.50
2022-10-12T18:36:21.790Z,95649.53
2022-10-12T18:38:48.506Z,95665.28
2022-10-12T18:41:18.492Z,95647.88
2022-10-12T18:43:45.081Z,95647.50
2022-10-12T18:46:14.120Z,95653.38
2022-10-12T18:48:41.156Z,95649.88
2022-10-12T18:51:24.516Z,95653.38
2022-10-12T18:53:51.519Z,95643.06
2022-10-12T18:56:19.206Z,95644.03
2022-10-12T18:58:45.920Z,95644.25
2022-10-12T19:01:15.786Z,95640.88
2022-10-12T19:03:42.501Z,95646.81
2022-10-12T19:06:15.461Z,95645.84
2022-10-12T19:08:45.897Z,95643.94
2022-10-12T19:11:13.887Z,95644.31
2022-10-12T19:13:41.473Z,95647.03
2022-10-12T19:16:11.488Z,95650.81
2022-10-12T19:18:38.975Z,95646.09
2022-10-12T19:21:08.766Z,95649.19
2022-10-12T19:23:35.495Z,95650.50
2022-10-12T19:26:04.773Z,95639.06
2022-10-12T19:28:31.763Z,95640.94
2022-10-12T19:30:58.816Z,95643.47
2022-10-12T19:33:27.206Z,95647.94
2022-10-12T19:35:53.809Z,95643.75
2022-10-12T19:38:20.461Z,95643.03
2022-10-12T19:40:47.693Z,95645.53
2022-10-12T19:43:14.309Z,95642.16
2022-10-12T19:45:41.708Z,95644.16
2022-10-12T19:48:08.922Z,95643.75
2022-10-12T19:50:35.756Z,95642.22
2022-10-12T19:53:02.715Z,95639.38
2022-10-12T19:55:32.868Z,95634.84
2022-10-12T19:58:03.396Z,95640.19
2022-10-12T20:00:32.632Z,95638.91
2022-10-12T20:02:59.239Z,95636.34
2022-10-12T20:05:26.059Z,95635.09
2022-10-12T20:07:52.645Z,95639.56
2022-10-12T20:10:19.389Z,95637.66
2022-10-12T20:12:45.999Z,95644.47
2022-10-12T20:15:12.583Z,95645.19
2022-10-12T20:17:39.418Z,95642.31
2022-10-12T20:20:08.704Z,95648.38
2022-10-12T20:22:35.364Z,95647.63
2022-10-12T20:25:05.648Z,95650.31
2022-10-12T20:27:36.542Z,95652.66
2022-10-12T20:30:04.490Z,95657.47
2022-10-12T20:32:31.079Z,95656.56
2022-10-12T20:34:57.761Z,95653.66
2022-10-12T20:37:24.399Z,95652.38
2022-10-12T20:39:52.473Z,95651.81
2022-10-12T20:42:21.853Z,95659.16
2022-10-12T20:44:48.882Z,95667.25
2022-10-12T20:47:15.519Z,95669.91
2022-10-12T20:49:42.385Z,95671.19
2022-10-12T20:52:09.331Z,95669.69
2022-10-12T20:54:36.228Z,95667.16
2022-10-12T20:57:04.840Z,95662.63
2022-10-12T20:59:34.398Z,95657.13
2022-10-12T21:02:00.979Z,95661.00
2022-10-12T21:04:33.570Z,95654.44
2022-10-12T21:07:03.058Z,95651.06
2022-10-12T21:09:30.765Z,95655.41
2022-10-12T21:11:57.340Z,95652.13
2022-10-12T21:14:26.368Z,95650.25
2022-10-12T21:16:53.247Z,95651.75
2022-10-12T21:19:19.807Z,95643.22
2022-10-12T21:21:49.167Z,95646.75
2022-10-12T21:24:16.103Z,95651.19
2022-10-12T21:26:43.496Z,95641.06
2022-10-12T21:29:10.843Z,95643.00
2022-10-12T21:31:37.977Z,95644.41
2022-10-12T21:34:07.453Z,95636.94
2022-10-12T21:36:36.453Z,95633.81
2022-10-12T21:39:07.965Z,95639.78
2022-10-12T21:41:34.813Z,95647.56
2022-10-12T21:44:01.466Z,95645.50
2022-10-12T21:46:32.651Z,95648.75
2022-10-12T21:49:00.226Z,95647.13
2022-10-12T21:51:28.387Z,95646.44
2022-10-12T21:53:54.978Z,95649.22
2022-10-12T21:56:24.660Z,95639.91
2022-10-12T21:58:52.629Z,95636.38
2022-10-12T22:01:24.909Z,95638.03
2022-10-12T22:03:56.332Z,95639.78
2022-10-12T22:06:24.564Z,95638.38
2022-10-12T22:09:00.131Z,95639.31
2022-10-12T22:11:29.449Z,95643.63
2022-10-12T22:14:05.050Z,95642.34
2022-10-12T22:16:32.196Z,95632.66
2022-10-12T22:18:59.985Z,95631.13
2022-10-12T22:21:32.709Z,95623.53
2022-10-12T22:24:00.443Z,95636.06
2022-10-12T22:26:27.643Z,95639.06
2022-10-12T22:28:55.246Z,95637.09
2022-10-12T22:31:24.652Z,95636.38
2022-10-12T22:33:52.339Z,95641.25
2022-10-12T22:36:19.156Z,95637.78
2022-10-12T22:38:45.751Z,95641.28
2022-10-12T22:41:17.351Z,95644.53
2022-10-12T22:43:47.980Z,95640.22
2022-10-12T22:46:14.730Z,95637.22
2022-10-12T22:48:41.558Z,95633.69
2022-10-12T22:51:10.907Z,95633.03
2022-10-12T22:53:37.679Z,95637.31
2022-10-12T22:56:08.023Z,95633.00
2022-10-12T22:58:35.631Z,95638.47
2022-10-12T23:01:03.972Z,95640.69
2022-10-12T23:03:32.516Z,95632.38
2022-10-12T23:06:02.949Z,95631.91
2022-10-12T23:08:29.575Z,95629.78
2022-10-12T23:11:04.772Z,95630.28
2022-10-12T23:13:33.970Z,95627.31
2022-10-12T23:16:05.215Z,95619.00
2022-10-12T23:18:34.044Z,95623.91
2022-10-12T23:21:04.804Z,95629.50
2022-10-12T23:23:32.672Z,95625.50
2022-10-12T23:26:05.427Z,95627.72
2022-10-12T23:28:32.039Z,95628.41
2022-10-12T23:30:58.938Z,95629.81
2022-10-12T23:33:25.594Z,95632.25
2022-10-12T23:36:00.888Z,95628.06
2022-10-12T23:38:32.391Z,95624.22
2022-10-12T23:40:58.946Z,95627.47
2022-10-12T23:43:26.792Z,95632.34
2022-10-12T23:45:55.669Z,95629.44
2022-10-12T23:48:23.567Z,95625.22
2022-10-12T23:50:51.901Z,95614.69
2022-10-12T23:53:19.873Z,95618.63
2022-10-12T23:55:46.952Z,95617.69
2022-10-12T23:58:13.720Z,95621.88
